createdAt,value
2022-08-26T00:00:12.544Z,26.40
2022-08-26T00:02:43.821Z,37.45
2022-08-26T00:05:16.126Z,23.52
2022-08-26T00:07:48.641Z,29.25
2022-08-26T00:10:21.846Z,30.88
2022-08-26T00:12:55.595Z,27.37
2022-08-26T00:15:28.506Z,22.37
2022-08-26T00:18:00.735Z,24.15
2022-08-26T00:20:35.175Z,26.45
2022-08-26T00:25:42.600Z,27.15
2022-08-26T00:28:15.142Z,20.85
2022-08-26T00:30:49.371Z,25.60
2022-08-26T00:33:23.286Z,36.83
2022-08-26T00:35:55.383Z,43.10
2022-08-26T00:38:27.651Z,32.53
2022-08-26T00:41:01.842Z,33.85
2022-08-26T00:43:47.271Z,32.85
2022-08-26T00:46:13.768Z,28.27
2022-08-26T00:48:49.249Z,38.50
2022-08-26T00:51:29.721Z,33.05
2022-08-26T00:54:03.823Z,29.40
2022-08-26T00:56:41.763Z,39.90
2022-08-26T00:59:15.781Z,34.13
2022-08-26T01:01:50.006Z,31.17
2022-08-26T01:04:24.144Z,35.25
2022-08-26T01:06:58.206Z,37.63
2022-08-26T01:09:30.668Z,31.90
2022-08-26T01:12:04.094Z,36.17
2022-08-26T01:14:38.161Z,33.67
2022-08-26T01:17:11.999Z,33.55
2022-08-26T01:19:47.120Z,31.42
2022-08-26T01:22:26.633Z,31.42
2022-08-26T01:25:03.554Z,35.17
2022-08-26T01:27:37.001Z,31.68
2022-08-26T01:30:11.490Z,26.02
2022-08-26T01:32:45.126Z,35.88
2022-08-26T01:35:18.105Z,26.50
2022-08-26T01:37:54.744Z,30.70
2022-08-26T01:40:31.496Z,30.15
2022-08-26T01:43:05.934Z,29.55
2022-08-26T01:48:15.017Z,22.93
2022-08-26T01:50:49.311Z,28.67
2022-08-26T01:53:24.546Z,30.70
2022-08-26T01:56:00.296Z,26.12
2022-08-26T01:58:39.259Z,26.80
2022-08-26T02:01:14.800Z,31.93
2022-08-26T02:04:08.785Z,33.10
2022-08-26T02:06:42.030Z,32.90
2022-08-26T02:09:16.127Z,28.47
2022-08-26T02:11:51.196Z,29.98
2022-08-26T02:14:30.006Z,32.13
2022-08-26T02:17:04.105Z,27.58
2022-08-26T02:19:44.016Z,26.30
2022-08-26T02:22:19.778Z,30.72
2022-08-26T02:24:58.679Z,32.55
2022-08-26T02:27:35.217Z,29.10
2022-08-26T02:30:14.042Z,31.55
2022-08-26T02:32:47.179Z,33.70
2022-08-26T02:35:24.580Z,37.33
2022-08-26T02:37:57.612Z,34.95
2022-08-26T02:40:33.939Z,30.95
2022-08-26T02:43:09.938Z,26.95
2022-08-26T02:45:43.686Z,36.38
2022-08-26T02:48:19.340Z,43.90
2022-08-26T02:50:52.569Z,29.70
2022-08-26T02:53:25.744Z,26.02
2022-08-26T02:55:58.716Z,33.98
2022-08-26T02:58:32.775Z,31.15
2022-08-26T03:01:05.885Z,32.98
2022-08-26T03:03:39.388Z,30.83
2022-08-26T03:06:12.240Z,28.20
2022-08-26T03:08:45.401Z,36.05
2022-08-26T03:11:18.916Z,40.10
2022-08-26T03:13:52.058Z,35.80
2022-08-26T03:16:25.248Z,30.02
2022-08-26T03:19:00.891Z,32.78
2022-08-26T03:21:34.126Z,32.10
2022-08-26T03:24:10.105Z,34.20
2022-08-26T03:26:52.400Z,27.25
2022-08-26T03:29:34.289Z,34.85
2022-08-26T03:32:06.436Z,36.30
2022-08-26T03:34:38.766Z,36.60
2022-08-26T03:37:11.072Z,34.63
2022-08-26T03:39:43.221Z,40.23
2022-08-26T03:42:16.079Z,26.70
2022-08-26T03:44:48.458Z,32.05
2022-08-26T03:47:20.792Z,36.20
2022-08-26T03:49:53.251Z,27.65
2022-08-26T03:52:25.712Z,35.55
2022-08-26T03:54:57.879Z,30.32
2022-08-26T03:57:31.366Z,38.10
2022-08-26T04:00:05.857Z,39.50
2022-08-26T04:02:40.143Z,35.30
2022-08-26T04:05:14.148Z,39.05
2022-08-26T04:07:46.695Z,29.55
2022-08-26T04:10:29.192Z,28.95
2022-08-26T04:13:01.419Z,34.40
2022-08-26T04:15:34.090Z,31.73
2022-08-26T04:18:06.946Z,35.58
2022-08-26T04:20:39.268Z,40.12
2022-08-26T04:23:11.747Z,42.73
2022-08-26T04:25:44.032Z,35.23
2022-08-26T04:28:16.564Z,35.80
2022-08-26T04:30:47.956Z,38.67
2022-08-26T04:33:19.529Z,29.48
2022-08-26T04:35:56.355Z,29.70
2022-08-26T04:38:29.291Z,41.90
2022-08-26T04:41:01.655Z,33.90
2022-08-26T04:43:34.187Z,25.52
2022-08-26T04:46:07.523Z,27.42
2022-08-26T04:48:41.531Z,26.45
2022-08-26T04:51:13.684Z,27.85
2022-08-26T04:53:46.271Z,32.98
2022-08-26T04:56:18.634Z,33.05
2022-08-26T04:58:51.013Z,29.98
2022-08-26T05:01:23.862Z,31.07
2022-08-26T05:03:56.438Z,28.47
2022-08-26T05:06:28.968Z,34.50
2022-08-26T05:09:02.962Z,32.67
2022-08-26T05:11:35.842Z,34.55
2022-08-26T05:14:08.426Z,33.35
2022-08-26T05:16:40.711Z,32.35
2022-08-26T05:19:13.400Z,22.80
2022-08-26T05:21:47.917Z,26.17
2022-08-26T05:24:20.774Z,20.72
2022-08-26T05:26:53.244Z,22.02
2022-08-26T05:29:25.452Z,24.47
2022-08-26T05:31:58.043Z,25.77
2022-08-26T05:34:30.498Z,27.98
2022-08-26T05:37:02.968Z,24.40
2022-08-26T05:39:36.468Z,14.05
2022-08-26T05:42:08.877Z,17.32
2022-08-26T05:44:54.081Z,19.92
2022-08-26T05:47:15.500Z,22.95
2022-08-26T05:49:51.604Z,19.05
2022-08-26T05:52:22.193Z,18.65
2022-08-26T05:54:56.069Z,16.30
2022-08-26T05:57:30.005Z,20.02
2022-08-26T06:00:02.492Z,22.93
2022-08-26T06:02:36.292Z,19.35
2022-08-26T06:05:09.215Z,12.65
2022-08-26T06:07:59.304Z,17.02
2022-08-26T06:10:33.129Z,22.55
2022-08-26T06:13:11.811Z,15.58
2022-08-26T06:15:47.142Z,15.30
2022-08-26T06:18:22.688Z,15.58
2022-08-26T06:20:57.987Z,11.63
2022-08-26T06:23:48.916Z,14.43
2022-08-26T06:26:21.480Z,13.80
2022-08-26T06:28:55.834Z,16.07
2022-08-26T06:31:28.430Z,15.15
2022-08-26T06:34:02.074Z,25.33
2022-08-26T06:36:35.126Z,14.90
2022-08-26T06:39:12.534Z,14.50
2022-08-26T06:41:45.820Z,16.35
2022-08-26T06:44:20.957Z,13.93
2022-08-26T06:46:53.650Z,22.93
2022-08-26T06:49:27.510Z,13.15
2022-08-26T06:52:00.372Z,16.77
2022-08-26T06:54:32.804Z,20.02
2022-08-26T06:57:05.209Z,17.45
2022-08-26T06:59:39.339Z,11.55
2022-08-26T07:02:13.562Z,12.37
2022-08-26T07:04:47.917Z,14.00
2022-08-26T07:09:53.001Z,15.83
2022-08-26T07:12:26.719Z,10.10
2022-08-26T07:14:59.005Z,8.05
2022-08-26T07:17:32.788Z,14.98
2022-08-26T07:20:09.495Z,48.68
2022-08-26T07:22:42.497Z,9.45
2022-08-26T07:25:14.793Z,11.97
2022-08-26T07:27:53.966Z,11.78
2022-08-26T07:30:22.653Z,14.65
2022-08-26T07:32:57.401Z,14.65
2022-08-26T07:35:30.502Z,10.88
2022-08-26T07:38:02.886Z,9.33
2022-08-26T07:40:35.834Z,8.38
2022-08-26T07:43:09.761Z,8.65
2022-08-26T07:48:15.037Z,8.00
2022-08-26T07:50:50.381Z,11.70
2022-08-26T07:55:56.318Z,13.75
2022-08-26T07:58:29.149Z,11.93
2022-08-26T08:01:02.123Z,10.80
2022-08-26T08:03:36.129Z,15.08
2022-08-26T08:06:11.152Z,10.23
2022-08-26T08:08:43.187Z,16.00
2022-08-26T08:11:15.903Z,10.38
2022-08-26T08:13:49.824Z,14.10
2022-08-26T08:16:24.600Z,6.70
2022-08-26T08:18:58.470Z,24.20
2022-08-26T08:24:02.765Z,9.35
2022-08-26T08:26:35.636Z,7.15
2022-08-26T08:29:09.033Z,6.57
2022-08-26T08:31:58.297Z,10.00
2022-08-26T08:34:15.666Z,8.15
2022-08-26T08:36:47.815Z,6.85
2022-08-26T08:39:20.176Z,10.23
2022-08-26T08:42:16.756Z,10.43
2022-08-26T08:44:52.507Z,8.43
2022-08-26T08:47:33.923Z,7.80
2022-08-26T08:50:15.010Z,14.73
2022-08-26T08:52:49.418Z,7.10
2022-08-26T08:58:02.466Z,6.30
2022-08-26T09:00:49.301Z,11.60
2022-08-26T09:03:45.303Z,12.13
2022-08-26T09:06:18.943Z,11.35
2022-08-26T09:08:52.748Z,11.22
2022-08-26T09:11:25.173Z,13.63
2022-08-26T09:13:57.851Z,11.57
2022-08-26T09:19:23.126Z,6.75
2022-08-26T09:22:04.647Z,7.73
2022-08-26T09:24:41.698Z,9.13
2022-08-26T09:27:11.701Z,40.50
2022-08-26T09:29:45.871Z,8.98
2022-08-26T09:32:27.135Z,15.15
2022-08-26T09:35:02.933Z,16.02
2022-08-26T09:37:41.128Z,10.60
2022-08-26T09:40:23.450Z,11.88
2022-08-26T09:43:22.909Z,7.30
2022-08-26T09:45:59.568Z,9.88
2022-08-26T09:48:36.052Z,7.42
2022-08-26T09:51:10.526Z,8.85
2022-08-26T09:53:54.736Z,7.97
2022-08-26T09:56:33.759Z,7.35
2022-08-26T09:59:08.104Z,8.30
2022-08-26T10:01:44.995Z,11.03
2022-08-26T10:04:23.602Z,8.35
2022-08-26T10:07:04.671Z,8.08
2022-08-26T10:09:44.919Z,13.08
2022-08-26T10:12:21.501Z,12.58
2022-08-26T10:14:59.182Z,10.75
2022-08-26T10:17:37.220Z,9.58
2022-08-26T10:20:23.097Z,9.05
2022-08-26T10:23:11.177Z,13.35
2022-08-26T10:25:54.322Z,12.30
2022-08-26T10:28:46.805Z,8.53
2022-08-26T10:31:30.527Z,10.68
2022-08-26T10:34:07.126Z,9.95
2022-08-26T10:37:13.744Z,7.20
2022-08-26T10:39:29.127Z,7.37
2022-08-26T10:42:05.675Z,9.20
2022-08-26T10:44:43.827Z,8.13
2022-08-26T10:47:22.736Z,8.25
2022-08-26T10:50:02.994Z,9.58
2022-08-26T10:52:50.619Z,8.40
2022-08-26T10:55:35.754Z,10.18
2022-08-26T10:58:26.109Z,8.00
2022-08-26T11:01:24.474Z,10.68
2022-08-26T11:04:19.625Z,9.30
2022-08-26T11:07:31.696Z,11.73
2022-08-26T11:10:14.167Z,15.00
2022-08-26T11:12:53.659Z,6.65
2022-08-26T11:15:29.643Z,10.68
2022-08-26T11:18:08.021Z,8.48
2022-08-26T11:20:45.201Z,9.10
2022-08-26T11:23:27.742Z,8.88
2022-08-26T11:26:12.363Z,5.28
2022-08-26T11:28:51.442Z,5.90
2022-08-26T11:31:31.766Z,5.17
2022-08-26T11:34:07.244Z,9.18
2022-08-26T11:36:45.585Z,8.40
2022-08-26T11:39:28.938Z,12.93
2022-08-26T11:42:04.937Z,4.92
2022-08-26T11:44:49.682Z,7.70
2022-08-26T11:47:19.998Z,5.33
2022-08-26T11:50:14.093Z,7.80
2022-08-26T11:53:07.650Z,7.12
2022-08-26T11:55:43.634Z,6.47
2022-08-26T11:58:17.186Z,6.03
2022-08-26T12:01:00.269Z,7.90
2022-08-26T12:03:48.004Z,8.05
2022-08-26T12:09:02.699Z,5.92
2022-08-26T12:11:39.266Z,8.05
2022-08-26T12:14:25.096Z,7.92
2022-08-26T12:17:03.338Z,8.15
2022-08-26T12:19:36.539Z,10.82
2022-08-26T12:22:30.755Z,9.45
2022-08-26T12:25:06.767Z,6.67
2022-08-26T12:27:45.329Z,6.87
2022-08-26T12:30:26.585Z,7.33
2022-08-26T12:33:21.960Z,7.58
2022-08-26T12:35:43.876Z,6.25
2022-08-26T12:38:16.992Z,5.12
2022-08-26T12:40:50.671Z,5.97
2022-08-26T12:46:21.107Z,7.67
2022-08-26T12:48:53.992Z,7.62
2022-08-26T12:51:30.649Z,7.15
2022-08-26T12:54:05.849Z,5.58
2022-08-26T12:56:40.680Z,6.35
2022-08-26T12:59:23.178Z,7.17
2022-08-26T13:01:56.754Z,9.98
2022-08-26T13:04:38.633Z,7.50
2022-08-26T13:07:17.090Z,7.35
2022-08-26T13:09:51.055Z,8.63
2022-08-26T13:12:41.322Z,3.45
2022-08-26T13:15:14.531Z,10.65
2022-08-26T13:17:47.312Z,6.83
2022-08-26T13:20:20.694Z,4.08
2022-08-26T13:22:58.836Z,7.92
2022-08-26T13:25:28.248Z,8.38
2022-08-26T13:28:01.002Z,7.55
2022-08-26T13:30:33.635Z,6.92
2022-08-26T13:33:09.075Z,6.20
2022-08-26T13:35:43.625Z,4.87
2022-08-26T13:38:22.315Z,9.80
2022-08-26T13:40:50.982Z,7.58
2022-08-26T13:43:24.366Z,9.88
2022-08-26T13:45:57.073Z,8.93
2022-08-26T13:48:29.944Z,10.85
2022-08-26T13:51:03.290Z,7.33
2022-08-26T13:53:37.887Z,7.53
2022-08-26T13:56:12.498Z,6.08
2022-08-26T13:58:45.335Z,7.58
2022-08-26T14:01:19.974Z,6.15
2022-08-26T14:03:53.011Z,9.50
2022-08-26T14:06:26.100Z,8.70
2022-08-26T14:08:58.886Z,7.40
2022-08-26T14:11:41.245Z,4.92
2022-08-26T14:14:06.397Z,6.75
2022-08-26T14:16:58.839Z,5.00
2022-08-26T14:19:15.393Z,6.37
2022-08-26T14:21:48.409Z,6.08
2022-08-26T14:24:22.158Z,4.60
2022-08-26T14:26:54.845Z,8.05
2022-08-26T14:29:27.814Z,6.23
2022-08-26T14:32:03.618Z,12.68
2022-08-26T14:34:36.686Z,5.35
2022-08-26T14:37:13.544Z,9.87
2022-08-26T14:39:44.980Z,13.65
2022-08-26T14:42:20.883Z,6.37
2022-08-26T14:44:57.747Z,9.60
2022-08-26T14:47:31.064Z,8.25
2022-08-26T14:50:04.545Z,9.33
2022-08-26T14:52:38.769Z,10.80
2022-08-26T14:55:12.059Z,9.93
2022-08-26T14:57:44.861Z,10.88
2022-08-26T15:00:18.672Z,8.05
2022-08-26T15:05:24.735Z,8.30
2022-08-26T15:07:57.683Z,16.80
2022-08-26T15:10:30.486Z,6.03
2022-08-26T15:13:03.779Z,9.67
2022-08-26T15:15:37.776Z,10.40
2022-08-26T15:18:11.009Z,8.43
2022-08-26T15:20:44.627Z,10.30
2022-08-26T15:23:17.833Z,14.07
2022-08-26T15:25:51.241Z,7.47
2022-08-26T15:28:24.517Z,8.03
2022-08-26T15:30:57.706Z,12.63
2022-08-26T15:33:30.565Z,9.60
2022-08-26T15:36:04.783Z,9.00
2022-08-26T15:38:41.417Z,9.55
2022-08-26T15:41:14.431Z,7.80
2022-08-26T15:43:47.284Z,9.33
2022-08-26T15:46:21.002Z,11.38
2022-08-26T15:48:54.134Z,10.72
2022-08-26T15:51:45.684Z,6.60
2022-08-26T15:54:11.497Z,10.00
2022-08-26T15:56:44.477Z,15.68
2022-08-26T15:59:17.531Z,13.72
2022-08-26T16:01:50.335Z,14.20
2022-08-26T16:04:23.092Z,15.53
2022-08-26T16:06:56.141Z,10.80
2022-08-26T16:09:30.286Z,17.12
2022-08-26T16:12:03.185Z,10.18
2022-08-26T16:14:36.670Z,10.70
2022-08-26T16:17:09.452Z,12.70
2022-08-26T16:19:42.593Z,10.10
2022-08-26T16:22:15.416Z,10.90
2022-08-26T16:24:48.591Z,33.08
2022-08-26T16:27:23.054Z,12.53
2022-08-26T16:29:55.843Z,15.32
2022-08-26T16:32:31.243Z,8.25
2022-08-26T16:35:03.394Z,8.75
2022-08-26T16:37:37.768Z,8.38
2022-08-26T16:40:11.947Z,9.90
2022-08-26T16:42:45.105Z,10.30
2022-08-26T16:45:18.538Z,11.18
2022-08-26T16:47:52.240Z,9.18
2022-08-26T16:50:25.669Z,9.98
2022-08-26T16:52:58.488Z,6.50
2022-08-26T16:55:31.681Z,10.23
2022-08-26T16:58:05.044Z,7.20
2022-08-26T17:00:38.018Z,16.45
2022-08-26T17:03:11.332Z,9.78
2022-08-26T17:05:44.644Z,11.85
2022-08-26T17:08:21.844Z,9.90
2022-08-26T17:10:54.884Z,10.80
2022-08-26T17:13:35.439Z,11.97
2022-08-26T17:16:04.271Z,9.20
2022-08-26T17:18:37.294Z,7.40
2022-08-26T17:21:11.777Z,8.30
2022-08-26T17:23:45.238Z,11.55
2022-08-26T17:26:17.749Z,12.53
2022-08-26T17:28:50.684Z,15.28
2022-08-26T17:31:23.865Z,11.08
2022-08-26T17:33:56.134Z,15.80
2022-08-26T17:36:28.584Z,12.63
2022-08-26T17:39:01.277Z,10.43
2022-08-26T17:41:35.502Z,9.45
2022-08-26T17:44:08.418Z,14.15
2022-08-26T17:49:13.608Z,13.53
2022-08-26T17:51:45.767Z,15.18
2022-08-26T17:54:18.051Z,11.38
2022-08-26T17:56:50.123Z,11.83
2022-08-26T17:59:22.361Z,8.13
2022-08-26T18:01:55.639Z,9.73
2022-08-26T18:04:28.007Z,10.20
2022-08-26T18:07:00.108Z,8.43
2022-08-26T18:09:33.416Z,15.13
2022-08-26T18:12:06.551Z,10.13
2022-08-26T18:14:39.454Z,12.35
2022-08-26T18:17:11.558Z,20.05
2022-08-26T18:19:45.464Z,10.15
2022-08-26T18:22:17.586Z,8.88
2022-08-26T18:24:52.822Z,15.70
2022-08-26T18:27:23.902Z,13.65
2022-08-26T18:29:56.521Z,11.48
2022-08-26T18:32:28.686Z,13.43
2022-08-26T18:35:00.771Z,18.27
2022-08-26T18:37:34.184Z,11.50
2022-08-26T18:40:08.355Z,15.90
2022-08-26T18:42:41.528Z,14.68
2022-08-26T18:45:16.411Z,17.87
2022-08-26T18:47:49.534Z,16.45
2022-08-26T18:50:22.438Z,16.17
2022-08-26T18:52:54.767Z,18.32
2022-08-26T18:55:27.563Z,14.63
2022-08-26T18:57:59.764Z,26.10
2022-08-26T19:00:31.880Z,19.98
2022-08-26T19:03:04.547Z,20.65
2022-08-26T19:05:40.159Z,16.90
2022-08-26T19:08:12.667Z,16.30
2022-08-26T19:10:45.086Z,20.72
2022-08-26T19:13:17.212Z,22.58
2022-08-26T19:15:49.667Z,17.98
2022-08-26T19:18:21.808Z,13.93
2022-08-26T19:20:53.883Z,23.40
2022-08-26T19:23:32.088Z,20.45
2022-08-26T19:26:04.519Z,23.47
2022-08-26T19:28:37.454Z,17.45
2022-08-26T19:31:12.729Z,14.93
2022-08-26T19:33:45.929Z,22.42
2022-08-26T19:36:21.899Z,15.05
2022-08-26T19:38:56.134Z,20.57
2022-08-26T19:41:37.497Z,19.32
2022-08-26T19:44:07.692Z,23.00
2022-08-26T19:46:41.902Z,17.35
2022-08-26T19:49:14.079Z,20.93
2022-08-26T19:51:46.175Z,22.35
2022-08-26T19:54:18.719Z,22.22
2022-08-26T19:56:50.753Z,21.95
2022-08-26T19:59:22.989Z,32.40
2022-08-26T20:02:01.294Z,22.02
2022-08-26T20:04:28.924Z,19.70
2022-08-26T20:07:02.773Z,23.77
2022-08-26T20:09:36.872Z,17.95
2022-08-26T20:12:09.449Z,19.35
2022-08-26T20:14:41.624Z,20.35
2022-08-26T20:17:14.445Z,22.80
2022-08-26T20:20:04.515Z,22.48
2022-08-26T20:22:37.492Z,22.87
2022-08-26T20:25:10.168Z,32.95
2022-08-26T20:27:44.058Z,20.85
2022-08-26T20:30:17.066Z,20.08
2022-08-26T20:32:49.605Z,23.80
2022-08-26T20:35:21.730Z,19.37
2022-08-26T20:37:53.980Z,18.73
2022-08-26T20:40:26.552Z,27.90
2022-08-26T20:42:58.937Z,30.45
2022-08-26T20:45:31.339Z,20.65
2022-08-26T20:48:03.980Z,25.88
2022-08-26T20:50:36.393Z,18.60
2022-08-26T20:53:09.266Z,21.73
2022-08-26T20:55:42.145Z,26.65
2022-08-26T20:58:14.470Z,26.25
2022-08-26T21:00:46.705Z,21.07
2022-08-26T21:03:18.868Z,20.25
2022-08-26T21:05:52.387Z,19.60
2022-08-26T21:08:24.417Z,16.67
2022-08-26T21:10:57.342Z,20.27
2022-08-26T21:13:42.942Z,16.37
2022-08-26T21:16:03.769Z,20.32
2022-08-26T21:18:36.885Z,18.57
2022-08-26T21:21:10.571Z,20.50
2022-08-26T21:23:42.720Z,27.20
2022-08-26T21:26:16.846Z,20.82
2022-08-26T21:28:49.165Z,28.32
2022-08-26T21:31:23.988Z,25.97
2022-08-26T21:33:57.074Z,23.12
2022-08-26T21:36:29.600Z,20.50
2022-08-26T21:39:02.250Z,20.27
2022-08-26T21:41:34.456Z,21.05
2022-08-26T21:44:06.760Z,24.95
2022-08-26T21:46:39.027Z,24.70
2022-08-26T21:49:13.832Z,20.17
2022-08-26T21:51:48.457Z,24.98
2022-08-26T21:54:20.469Z,17.67
2022-08-26T21:56:54.198Z,18.90
2022-08-26T21:59:26.518Z,27.40
2022-08-26T22:01:59.353Z,20.80
2022-08-26T22:04:31.482Z,27.20
2022-08-26T22:07:04.380Z,32.48
2022-08-26T22:09:36.690Z,19.98
2022-08-26T22:12:12.480Z,24.75
2022-08-26T22:14:45.834Z,18.35
2022-08-26T22:17:17.915Z,22.62
2022-08-26T22:19:50.103Z,19.75
2022-08-26T22:22:23.092Z,24.55
2022-08-26T22:24:55.225Z,20.02
2022-08-26T22:27:27.538Z,26.93
2022-08-26T22:29:59.601Z,22.77
2022-08-26T22:32:34.633Z,19.02
2022-08-26T22:35:11.402Z,19.07
2022-08-26T22:37:41.367Z,21.45
2022-08-26T22:40:15.251Z,25.80
2022-08-26T22:42:55.591Z,17.42
2022-08-26T22:45:21.180Z,18.40
2022-08-26T22:47:53.476Z,20.48
2022-08-26T22:50:25.953Z,24.82
2022-08-26T22:52:58.373Z,20.27
2022-08-26T22:55:30.904Z,21.05
2022-08-26T22:58:03.226Z,16.25
2022-08-26T23:00:35.427Z,16.52
2022-08-26T23:03:07.854Z,24.37
2022-08-26T23:05:41.365Z,21.35
2022-08-26T23:08:14.418Z,14.43
2022-08-26T23:10:49.573Z,18.35
2022-08-26T23:13:22.297Z,19.92
2022-08-26T23:16:06.670Z,23.52
2022-08-26T23:18:39.423Z,19.00
2022-08-26T23:21:11.738Z,22.17
2022-08-26T23:23:45.532Z,16.67
2022-08-26T23:28:49.908Z,21.93
2022-08-26T23:31:22.241Z,31.68
2022-08-26T23:34:11.910Z,21.07
2022-08-26T23:36:44.695Z,24.67
2022-08-26T23:39:18.626Z,23.25
2022-08-26T23:41:51.220Z,22.37
2022-08-26T23:44:24.884Z,20.17
2022-08-26T23:46:57.668Z,24.87
2022-08-26T23:49:31.037Z,21.45
2022-08-26T23:52:21.358Z,21.02
2022-08-26T23:54:54.090Z,23.10
2022-08-26T23:57:27.252Z,19.70
2022-08-26T23:59:59.468Z,21.37
